sensor_id;sensor_type;location;lat;lon;timestamp;temperature;humidity
1337;DHT22;662;48.814;9.318;2023-05-10T00:01:56;15.90;96.00
1337;DHT22;662;48.814;9.318;2023-05-10T00:04:23;15.90;95.90
1337;DHT22;662;48.814;9.318;2023-05-10T00:06:53;16.00;95.90
1337;DHT22;662;48.814;9.318;2023-05-10T00:09:19;15.90;95.70
1337;DHT22;662;48.814;9.318;2023-05-10T00:11:44;15.90;95.90
1337;DHT22;662;48.814;9.318;2023-05-10T00:14:10;16.00;96.10
1337;DHT22;662;48.814;9.318;2023-05-10T00:16:36;15.90;96.20
1337;DHT22;662;48.814;9.318;2023-05-10T00:19:02;15.90;96.40
1337;DHT22;662;48.814;9.318;2023-05-10T00:21:27;15.90;96.60
1337;DHT22;662;48.814;9.318;2023-05-10T00:23:54;15.90;96.60
1337;DHT22;662;48.814;9.318;2023-05-10T00:26:20;15.80;96.50
1337;DHT22;662;48.814;9.318;2023-05-10T00:28:45;15.80;96.30
1337;DHT22;662;48.814;9.318;2023-05-10T00:31:11;15.80;96.20
1337;DHT22;662;48.814;9.318;2023-05-10T00:33:37;15.70;96.00
1337;DHT22;662;48.814;9.318;2023-05-10T00:36:02;15.70;95.80
1337;DHT22;662;48.814;9.318;2023-05-10T00:38:28;15.60;95.40
1337;DHT22;662;48.814;9.318;2023-05-10T00:40:54;15.60;95.50
1337;DHT22;662;48.814;9.318;2023-05-10T00:43:20;15.60;95.70
1337;DHT22;662;48.814;9.318;2023-05-10T00:45:45;15.60;95.60
1337;DHT22;662;48.814;9.318;2023-05-10T00:48:11;15.60;95.20
1337;DHT22;662;48.814;9.318;2023-05-10T00:50:40;15.50;94.90
1337;DHT22;662;48.814;9.318;2023-05-10T00:53:06;15.50;94.30
1337;DHT22;662;48.814;9.318;2023-05-10T00:55:31;15.40;94.00
1337;DHT22;662;48.814;9.318;2023-05-10T00:57:57;15.30;93.70
1337;DHT22;662;48.814;9.318;2023-05-10T01:00:23;15.30;94.00
1337;DHT22;662;48.814;9.318;2023-05-10T01:02:48;15.30;94.10
1337;DHT22;662;48.814;9.318;2023-05-10T01:05:15;15.20;94.10
1337;DHT22;662;48.814;9.318;2023-05-10T01:07:40;15.20;94.40
1337;DHT22;662;48.814;9.318;2023-05-10T01:10:07;15.20;94.60
1337;DHT22;662;48.814;9.318;2023-05-10T01:12:39;15.20;94.70
1337;DHT22;662;48.814;9.318;2023-05-10T01:15:07;15.20;94.70
1337;DHT22;662;48.814;9.318;2023-05-10T01:17:34;15.20;94.90
1337;DHT22;662;48.814;9.318;2023-05-10T01:20:01;15.20;94.60
1337;DHT22;662;48.814;9.318;2023-05-10T01:23:05;15.10;93.20
1337;DHT22;662;48.814;9.318;2023-05-10T01:26:07;15.10;93.50
1337;DHT22;662;48.814;9.318;2023-05-10T01:34:25;15.00;94.20
1337;DHT22;662;48.814;9.318;2023-05-10T01:37:01;15.00;94.20
1337;DHT22;662;48.814;9.318;2023-05-10T01:42:11;14.90;94.00
1337;DHT22;662;48.814;9.318;2023-05-10T01:44:58;14.90;94.00
1337;DHT22;662;48.814;9.318;2023-05-10T01:47:31;14.90;94.20
1337;DHT22;662;48.814;9.318;2023-05-10T01:50:02;14.90;94.00
1337;DHT22;662;48.814;9.318;2023-05-10T01:52:35;14.80;93.80
1337;DHT22;662;48.814;9.318;2023-05-10T01:55:05;14.80;93.90
1337;DHT22;662;48.814;9.318;2023-05-10T01:57:37;14.90;94.20
1337;DHT22;662;48.814;9.318;2023-05-10T02:00:06;14.90;94.20
1337;DHT22;662;48.814;9.318;2023-05-10T02:02:36;14.90;93.70
1337;DHT22;662;48.814;9.318;2023-05-10T02:05:05;14.80;93.60
1337;DHT22;662;48.814;9.318;2023-05-10T02:07:32;14.80;93.80
1337;DHT22;662;48.814;9.318;2023-05-10T02:09:59;14.80;93.90
1337;DHT22;662;48.814;9.318;2023-05-10T02:12:25;14.80;93.90
1337;DHT22;662;48.814;9.318;2023-05-10T02:14:53;14.80;93.60
1337;DHT22;662;48.814;9.318;2023-05-10T02:17:21;14.80;93.20
1337;DHT22;662;48.814;9.318;2023-05-10T02:19:47;14.80;92.90
1337;DHT22;662;48.814;9.318;2023-05-10T02:22:15;14.70;92.70
1337;DHT22;662;48.814;9.318;2023-05-10T02:24:42;14.70;92.70
1337;DHT22;662;48.814;9.318;2023-05-10T02:27:09;14.60;92.80
1337;DHT22;662;48.814;9.318;2023-05-10T02:29:37;14.60;92.60
1337;DHT22;662;48.814;9.318;2023-05-10T02:32:03;14.60;92.50
1337;DHT22;662;48.814;9.318;2023-05-10T02:34:30;14.50;92.60
1337;DHT22;662;48.814;9.318;2023-05-10T02:36:57;14.50;92.80
1337;DHT22;662;48.814;9.318;2023-05-10T02:39:24;14.50;92.80
1337;DHT22;662;48.814;9.318;2023-05-10T02:41:53;14.50;92.80
1337;DHT22;662;48.814;9.318;2023-05-10T02:44:22;14.50;92.90
1337;DHT22;662;48.814;9.318;2023-05-10T02:46:48;14.50;92.90
1337;DHT22;662;48.814;9.318;2023-05-10T02:49:15;14.50;93.00
1337;DHT22;662;48.814;9.318;2023-05-10T02:51:44;14.50;93.00
1337;DHT22;662;48.814;9.318;2023-05-10T02:54:20;14.50;93.00
1337;DHT22;662;48.814;9.318;2023-05-10T02:56:50;14.50;93.00
1337;DHT22;662;48.814;9.318;2023-05-10T02:59:16;14.50;92.90
1337;DHT22;662;48.814;9.318;2023-05-10T03:01:42;14.50;93.00
1337;DHT22;662;48.814;9.318;2023-05-10T03:04:08;14.50;93.20
1337;DHT22;662;48.814;9.318;2023-05-10T03:06:33;14.50;93.10
1337;DHT22;662;48.814;9.318;2023-05-10T03:08:59;14.50;93.20
1337;DHT22;662;48.814;9.318;2023-05-10T03:14:32;14.60;93.40
1337;DHT22;662;48.814;9.318;2023-05-10T03:17:17;14.60;93.50
1337;DHT22;662;48.814;9.318;2023-05-10T03:19:53;14.60;93.50
1337;DHT22;662;48.814;9.318;2023-05-10T03:22:30;14.60;93.40
1337;DHT22;662;48.814;9.318;2023-05-10T03:24:57;14.60;93.50
1337;DHT22;662;48.814;9.318;2023-05-10T03:27:24;14.70;93.60
1337;DHT22;662;48.814;9.318;2023-05-10T03:29:52;14.70;93.60
1337;DHT22;662;48.814;9.318;2023-05-10T03:32:18;14.70;93.60
1337;DHT22;662;48.814;9.318;2023-05-10T03:34:44;14.70;93.50
1337;DHT22;662;48.814;9.318;2023-05-10T03:37:10;14.80;93.50
1337;DHT22;662;48.814;9.318;2023-05-10T03:39:35;14.80;93.40
1337;DHT22;662;48.814;9.318;2023-05-10T03:42:01;14.80;93.40
1337;DHT22;662;48.814;9.318;2023-05-10T03:44:26;14.80;93.30
1337;DHT22;662;48.814;9.318;2023-05-10T03:46:52;14.90;93.20
1337;DHT22;662;48.814;9.318;2023-05-10T03:49:18;14.90;93.20
1337;DHT22;662;48.814;9.318;2023-05-10T03:51:43;14.90;93.10
1337;DHT22;662;48.814;9.318;2023-05-10T03:54:09;14.90;93.00
1337;DHT22;662;48.814;9.318;2023-05-10T03:56:34;14.90;92.90
1337;DHT22;662;48.814;9.318;2023-05-10T03:59:00;14.90;92.60
1337;DHT22;662;48.814;9.318;2023-05-10T04:01:26;14.90;92.10
1337;DHT22;662;48.814;9.318;2023-05-10T04:03:51;14.90;91.80
1337;DHT22;662;48.814;9.318;2023-05-10T04:06:17;14.80;91.80
1337;DHT22;662;48.814;9.318;2023-05-10T04:08:42;14.80;91.80
1337;DHT22;662;48.814;9.318;2023-05-10T04:11:09;14.80;91.80
1337;DHT22;662;48.814;9.318;2023-05-10T04:13:36;14.80;91.80
1337;DHT22;662;48.814;9.318;2023-05-10T04:16:01;14.80;91.90
1337;DHT22;662;48.814;9.318;2023-05-10T04:18:27;14.80;91.80
1337;DHT22;662;48.814;9.318;2023-05-10T04:20:53;14.80;91.80
1337;DHT22;662;48.814;9.318;2023-05-10T04:23:18;14.80;91.80
1337;DHT22;662;48.814;9.318;2023-05-10T04:25:44;14.80;91.80
1337;DHT22;662;48.814;9.318;2023-05-10T04:28:10;14.80;91.70
1337;DHT22;662;48.814;9.318;2023-05-10T04:30:35;14.80;91.70
1337;DHT22;662;48.814;9.318;2023-05-10T04:33:01;14.80;91.50
1337;DHT22;662;48.814;9.318;2023-05-10T04:35:27;14.80;91.40
1337;DHT22;662;48.814;9.318;2023-05-10T04:37:53;14.80;91.40
1337;DHT22;662;48.814;9.318;2023-05-10T04:40:19;14.80;91.40
1337;DHT22;662;48.814;9.318;2023-05-10T04:42:45;14.90;91.50
1337;DHT22;662;48.814;9.318;2023-05-10T04:45:11;14.90;91.30
1337;DHT22;662;48.814;9.318;2023-05-10T04:47:37;14.90;90.90
1337;DHT22;662;48.814;9.318;2023-05-10T04:50:04;14.90;90.80
1337;DHT22;662;48.814;9.318;2023-05-10T04:52:30;14.90;90.70
1337;DHT22;662;48.814;9.318;2023-05-10T04:54:55;14.90;90.50
1337;DHT22;662;48.814;9.318;2023-05-10T04:57:21;14.90;90.30
1337;DHT22;662;48.814;9.318;2023-05-10T04:59:47;14.90;90.30
1337;DHT22;662;48.814;9.318;2023-05-10T05:02:13;15.00;90.30
1337;DHT22;662;48.814;9.318;2023-05-10T05:04:38;14.90;90.10
1337;DHT22;662;48.814;9.318;2023-05-10T05:07:04;14.90;90.00
1337;DHT22;662;48.814;9.318;2023-05-10T05:09:30;15.00;90.00
1337;DHT22;662;48.814;9.318;2023-05-10T05:11:57;15.00;90.00
1337;DHT22;662;48.814;9.318;2023-05-10T05:14:23;15.00;90.30
1337;DHT22;662;48.814;9.318;2023-05-10T05:16:53;15.10;90.00
1337;DHT22;662;48.814;9.318;2023-05-10T05:19:19;15.10;90.00
1337;DHT22;662;48.814;9.318;2023-05-10T05:21:44;15.20;90.10
1337;DHT22;662;48.814;9.318;2023-05-10T05:24:10;15.20;90.10
1337;DHT22;662;48.814;9.318;2023-05-10T05:26:38;15.30;89.70
1337;DHT22;662;48.814;9.318;2023-05-10T05:29:03;15.30;89.50
1337;DHT22;662;48.814;9.318;2023-05-10T05:31:29;15.40;89.50
1337;DHT22;662;48.814;9.318;2023-05-10T05:33:55;15.40;89.40
1337;DHT22;662;48.814;9.318;2023-05-10T05:36:21;15.50;89.30
1337;DHT22;662;48.814;9.318;2023-05-10T05:38:47;15.60;89.30
1337;DHT22;662;48.814;9.318;2023-05-10T05:41:13;15.70;89.20
1337;DHT22;662;48.814;9.318;2023-05-10T05:43:38;15.70;89.10
1337;DHT22;662;48.814;9.318;2023-05-10T05:46:04;15.80;88.90
1337;DHT22;662;48.814;9.318;2023-05-10T05:48:30;15.90;88.50
1337;DHT22;662;48.814;9.318;2023-05-10T05:50:56;15.90;88.00
1337;DHT22;662;48.814;9.318;2023-05-10T05:53:22;16.00;87.90
1337;DHT22;662;48.814;9.318;2023-05-10T05:55:56;16.10;87.50
1337;DHT22;662;48.814;9.318;2023-05-10T05:58:22;16.10;87.00
1337;DHT22;662;48.814;9.318;2023-05-10T06:00:48;16.10;86.10
1337;DHT22;662;48.814;9.318;2023-05-10T06:03:13;16.10;85.00
1337;DHT22;662;48.814;9.318;2023-05-10T06:05:41;16.10;85.20
1337;DHT22;662;48.814;9.318;2023-05-10T06:08:10;16.20;85.40
1337;DHT22;662;48.814;9.318;2023-05-10T06:10:36;16.20;84.50
1337;DHT22;662;48.814;9.318;2023-05-10T06:13:02;16.20;83.90
1337;DHT22;662;48.814;9.318;2023-05-10T06:15:28;16.20;83.50
1337;DHT22;662;48.814;9.318;2023-05-10T06:17:53;16.30;83.70
1337;DHT22;662;48.814;9.318;2023-05-10T06:20:19;16.40;83.70
1337;DHT22;662;48.814;9.318;2023-05-10T06:22:45;16.40;83.20
1337;DHT22;662;48.814;9.318;2023-05-10T06:25:10;16.40;82.40
1337;DHT22;662;48.814;9.318;2023-05-10T06:27:37;16.40;81.80
1337;DHT22;662;48.814;9.318;2023-05-10T06:30:03;16.40;81.30
1337;DHT22;662;48.814;9.318;2023-05-10T06:32:29;16.40;80.50
1337;DHT22;662;48.814;9.318;2023-05-10T06:34:54;16.40;80.30
1337;DHT22;662;48.814;9.318;2023-05-10T06:37:20;16.30;79.80
1337;DHT22;662;48.814;9.318;2023-05-10T06:39:46;16.30;79.60
1337;DHT22;662;48.814;9.318;2023-05-10T06:42:11;16.30;79.50
1337;DHT22;662;48.814;9.318;2023-05-10T06:44:37;16.30;79.60
1337;DHT22;662;48.814;9.318;2023-05-10T06:47:03;16.30;79.40
1337;DHT22;662;48.814;9.318;2023-05-10T06:49:28;16.30;79.20
1337;DHT22;662;48.814;9.318;2023-05-10T06:51:55;16.30;79.20
1337;DHT22;662;48.814;9.318;2023-05-10T06:54:21;16.40;79.60
1337;DHT22;662;48.814;9.318;2023-05-10T06:56:48;16.40;79.20
1337;DHT22;662;48.814;9.318;2023-05-10T06:59:14;16.40;78.30
1337;DHT22;662;48.814;9.318;2023-05-10T07:01:41;16.40;78.60
1337;DHT22;662;48.814;9.318;2023-05-10T07:04:07;16.50;78.70
1337;DHT22;662;48.814;9.318;2023-05-10T07:06:33;16.50;79.00
1337;DHT22;662;48.814;9.318;2023-05-10T07:08:59;16.60;79.30
1337;DHT22;662;48.814;9.318;2023-05-10T07:11:25;16.70;79.40
1337;DHT22;662;48.814;9.318;2023-05-10T07:13:52;16.80;79.80
1337;DHT22;662;48.814;9.318;2023-05-10T07:16:17;16.80;79.60
1337;DHT22;662;48.814;9.318;2023-05-10T07:18:43;16.80;78.00
1337;DHT22;662;48.814;9.318;2023-05-10T07:21:09;16.70;76.70
1337;DHT22;662;48.814;9.318;2023-05-10T07:23:34;16.70;76.80
1337;DHT22;662;48.814;9.318;2023-05-10T07:26:00;16.70;76.60
1337;DHT22;662;48.814;9.318;2023-05-10T07:28:27;16.80;76.00
1337;DHT22;662;48.814;9.318;2023-05-10T07:30:53;16.80;75.40
1337;DHT22;662;48.814;9.318;2023-05-10T07:33:19;16.90;75.20
1337;DHT22;662;48.814;9.318;2023-05-10T07:35:44;17.00;74.80
1337;DHT22;662;48.814;9.318;2023-05-10T07:38:10;17.10;75.30
1337;DHT22;662;48.814;9.318;2023-05-10T07:40:36;17.20;75.70
1337;DHT22;662;48.814;9.318;2023-05-10T07:43:03;17.30;75.20
1337;DHT22;662;48.814;9.318;2023-05-10T07:45:29;17.30;74.10
1337;DHT22;662;48.814;9.318;2023-05-10T07:47:54;17.40;74.20
1337;DHT22;662;48.814;9.318;2023-05-10T07:50:20;17.50;74.40
1337;DHT22;662;48.814;9.318;2023-05-10T07:52:47;17.50;73.00
1337;DHT22;662;48.814;9.318;2023-05-10T07:55:13;17.60;72.30
1337;DHT22;662;48.814;9.318;2023-05-10T07:57:38;17.60;72.00
1337;DHT22;662;48.814;9.318;2023-05-10T08:00:05;17.60;72.30
1337;DHT22;662;48.814;9.318;2023-05-10T08:02:31;17.70;72.50
1337;DHT22;662;48.814;9.318;2023-05-10T08:04:57;17.80;72.20
1337;DHT22;662;48.814;9.318;2023-05-10T08:07:24;17.80;72.00
1337;DHT22;662;48.814;9.318;2023-05-10T08:09:50;17.90;71.40
1337;DHT22;662;48.814;9.318;2023-05-10T08:12:16;17.90;70.70
1337;DHT22;662;48.814;9.318;2023-05-10T08:14:42;17.80;70.40
1337;DHT22;662;48.814;9.318;2023-05-10T08:17:07;17.80;70.30
1337;DHT22;662;48.814;9.318;2023-05-10T08:19:33;17.80;69.50
1337;DHT22;662;48.814;9.318;2023-05-10T08:21:59;17.80;70.70
1337;DHT22;662;48.814;9.318;2023-05-10T08:24:25;17.70;68.90
1337;DHT22;662;48.814;9.318;2023-05-10T08:26:50;17.70;69.10
1337;DHT22;662;48.814;9.318;2023-05-10T08:29:16;17.70;68.00
1337;DHT22;662;48.814;9.318;2023-05-10T08:31:42;17.70;67.70
1337;DHT22;662;48.814;9.318;2023-05-10T08:34:07;17.60;68.70
1337;DHT22;662;48.814;9.318;2023-05-10T08:36:33;17.60;69.20
1337;DHT22;662;48.814;9.318;2023-05-10T08:38:59;17.60;68.00
1337;DHT22;662;48.814;9.318;2023-05-10T08:41:25;17.60;68.40
1337;DHT22;662;48.814;9.318;2023-05-10T08:43:52;17.60;69.20
1337;DHT22;662;48.814;9.318;2023-05-10T08:46:19;17.50;68.30
1337;DHT22;662;48.814;9.318;2023-05-10T08:48:46;17.50;68.30
1337;DHT22;662;48.814;9.318;2023-05-10T08:51:20;17.60;68.80
1337;DHT22;662;48.814;9.318;2023-05-10T08:53:47;17.70;69.60
1337;DHT22;662;48.814;9.318;2023-05-10T08:56:13;17.70;70.00
1337;DHT22;662;48.814;9.318;2023-05-10T08:58:41;17.80;70.00
1337;DHT22;662;48.814;9.318;2023-05-10T09:01:07;17.80;69.40
1337;DHT22;662;48.814;9.318;2023-05-10T09:03:34;17.80;69.30
1337;DHT22;662;48.814;9.318;2023-05-10T09:06:00;17.80;69.10
1337;DHT22;662;48.814;9.318;2023-05-10T09:08:26;17.80;69.60
1337;DHT22;662;48.814;9.318;2023-05-10T09:10:53;17.80;67.30
1337;DHT22;662;48.814;9.318;2023-05-10T09:13:21;17.90;68.00
1337;DHT22;662;48.814;9.318;2023-05-10T09:15:47;18.00;67.70
1337;DHT22;662;48.814;9.318;2023-05-10T09:18:13;18.10;67.90
1337;DHT22;662;48.814;9.318;2023-05-10T09:20:39;18.30;68.10
1337;DHT22;662;48.814;9.318;2023-05-10T09:23:05;18.60;68.60
1337;DHT22;662;48.814;9.318;2023-05-10T09:25:31;18.80;67.50
1337;DHT22;662;48.814;9.318;2023-05-10T09:27:59;18.90;65.90
1337;DHT22;662;48.814;9.318;2023-05-10T09:30:27;19.00;65.80
1337;DHT22;662;48.814;9.318;2023-05-10T09:32:53;19.20;65.20
1337;DHT22;662;48.814;9.318;2023-05-10T09:35:20;19.30;63.00
1337;DHT22;662;48.814;9.318;2023-05-10T09:37:48;19.40;63.00
1337;DHT22;662;48.814;9.318;2023-05-10T09:40:18;19.50;63.60
1337;DHT22;662;48.814;9.318;2023-05-10T09:45:23;19.80;64.60
1337;DHT22;662;48.814;9.318;2023-05-10T09:47:49;19.80;61.20
1337;DHT22;662;48.814;9.318;2023-05-10T09:50:15;19.80;61.00
1337;DHT22;662;48.814;9.318;2023-05-10T09:52:59;19.80;61.70
1337;DHT22;662;48.814;9.318;2023-05-10T09:55:26;19.80;60.80
1337;DHT22;662;48.814;9.318;2023-05-10T09:58:03;19.70;59.20
1337;DHT22;662;48.814;9.318;2023-05-10T10:00:35;19.70;58.30
1337;DHT22;662;48.814;9.318;2023-05-10T10:03:01;19.80;58.90
1337;DHT22;662;48.814;9.318;2023-05-10T10:05:32;20.00;60.70
1337;DHT22;662;48.814;9.318;2023-05-10T10:08:00;20.10;60.40
1337;DHT22;662;48.814;9.318;2023-05-10T10:10:27;20.10;60.90
1337;DHT22;662;48.814;9.318;2023-05-10T10:12:54;20.10;60.90
1337;DHT22;662;48.814;9.318;2023-05-10T10:15:21;20.10;61.10
1337;DHT22;662;48.814;9.318;2023-05-10T10:17:48;19.90;60.60
1337;DHT22;662;48.814;9.318;2023-05-10T10:20:14;19.70;60.50
1337;DHT22;662;48.814;9.318;2023-05-10T10:22:40;19.60;61.10
1337;DHT22;662;48.814;9.318;2023-05-10T10:25:07;19.40;61.10
1337;DHT22;662;48.814;9.318;2023-05-10T10:30:39;19.40;62.10
1337;DHT22;662;48.814;9.318;2023-05-10T10:36:15;19.60;62.80
1337;DHT22;662;48.814;9.318;2023-05-10T10:41:37;19.80;59.60
1337;DHT22;662;48.814;9.318;2023-05-10T10:44:25;19.70;59.40
1337;DHT22;662;48.814;9.318;2023-05-10T10:50:06;19.50;59.10
1337;DHT22;662;48.814;9.318;2023-05-10T10:52:34;19.40;59.50
1337;DHT22;662;48.814;9.318;2023-05-10T10:55:27;19.40;59.70
1337;DHT22;662;48.814;9.318;2023-05-10T10:57:58;19.40;60.20
1337;DHT22;662;48.814;9.318;2023-05-10T11:00:31;19.40;60.10
1337;DHT22;662;48.814;9.318;2023-05-10T11:03:11;19.50;60.00
1337;DHT22;662;48.814;9.318;2023-05-10T11:08:15;19.70;59.70
1337;DHT22;662;48.814;9.318;2023-05-10T11:10:50;19.70;59.00
1337;DHT22;662;48.814;9.318;2023-05-10T11:13:30;19.70;57.80
1337;DHT22;662;48.814;9.318;2023-05-10T11:15:57;19.80;57.30
1337;DHT22;662;48.814;9.318;2023-05-10T11:18:26;19.80;56.50
1337;DHT22;662;48.814;9.318;2023-05-10T11:21:01;19.80;56.40
1337;DHT22;662;48.814;9.318;2023-05-10T11:26:07;19.70;55.70
1337;DHT22;662;48.814;9.318;2023-05-10T11:31:08;19.60;55.40
1337;DHT22;662;48.814;9.318;2023-05-10T11:33:46;19.50;55.20
1337;DHT22;662;48.814;9.318;2023-05-10T11:36:15;19.30;54.40
1337;DHT22;662;48.814;9.318;2023-05-10T11:38:40;19.20;54.80
1337;DHT22;662;48.814;9.318;2023-05-10T11:41:08;19.10;54.60
1337;DHT22;662;48.814;9.318;2023-05-10T11:43:35;19.10;54.60
1337;DHT22;662;48.814;9.318;2023-05-10T11:46:07;19.10;54.90
1337;DHT22;662;48.814;9.318;2023-05-10T11:48:33;19.10;55.10
1337;DHT22;662;48.814;9.318;2023-05-10T11:51:00;19.10;55.00
1337;DHT22;662;48.814;9.318;2023-05-10T11:53:26;19.10;55.00
1337;DHT22;662;48.814;9.318;2023-05-10T11:55:52;19.10;54.90
1337;DHT22;662;48.814;9.318;2023-05-10T11:58:18;19.10;54.60
1337;DHT22;662;48.814;9.318;2023-05-10T12:00:44;19.10;54.90
1337;DHT22;662;48.814;9.318;2023-05-10T12:03:11;19.00;54.70
1337;DHT22;662;48.814;9.318;2023-05-10T12:05:37;19.00;54.70
1337;DHT22;662;48.814;9.318;2023-05-10T12:08:13;19.00;55.00
1337;DHT22;662;48.814;9.318;2023-05-10T12:10:39;19.00;55.40
1337;DHT22;662;48.814;9.318;2023-05-10T12:13:05;19.00;55.50
1337;DHT22;662;48.814;9.318;2023-05-10T12:15:30;19.00;54.90
1337;DHT22;662;48.814;9.318;2023-05-10T12:17:56;18.90;54.80
1337;DHT22;662;48.814;9.318;2023-05-10T12:20:23;18.90;54.90
1337;DHT22;662;48.814;9.318;2023-05-10T12:22:54;18.90;54.50
1337;DHT22;662;48.814;9.318;2023-05-10T12:25:22;18.80;54.40
1337;DHT22;662;48.814;9.318;2023-05-10T12:27:52;18.90;54.60
1337;DHT22;662;48.814;9.318;2023-05-10T12:30:22;18.90;54.70
1337;DHT22;662;48.814;9.318;2023-05-10T12:32:48;18.90;54.90
1337;DHT22;662;48.814;9.318;2023-05-10T12:35:13;18.80;54.20
1337;DHT22;662;48.814;9.318;2023-05-10T12:37:39;18.80;53.80
1337;DHT22;662;48.814;9.318;2023-05-10T12:40:06;18.70;54.40
1337;DHT22;662;48.814;9.318;2023-05-10T12:42:33;18.70;54.70
1337;DHT22;662;48.814;9.318;2023-05-10T12:45:01;18.80;55.00
1337;DHT22;662;48.814;9.318;2023-05-10T12:47:27;18.80;55.00
1337;DHT22;662;48.814;9.318;2023-05-10T12:49:53;18.90;54.90
1337;DHT22;662;48.814;9.318;2023-05-10T12:52:19;19.00;54.80
1337;DHT22;662;48.814;9.318;2023-05-10T12:54:45;19.00;54.80
1337;DHT22;662;48.814;9.318;2023-05-10T12:57:11;19.10;54.60
1337;DHT22;662;48.814;9.318;2023-05-10T12:59:36;19.20;54.50
1337;DHT22;662;48.814;9.318;2023-05-10T13:02:02;19.30;54.30
1337;DHT22;662;48.814;9.318;2023-05-10T13:04:28;19.40;54.30
1337;DHT22;662;48.814;9.318;2023-05-10T13:06:53;19.50;54.10
1337;DHT22;662;48.814;9.318;2023-05-10T13:09:21;19.70;54.20
1337;DHT22;662;48.814;9.318;2023-05-10T13:11:47;19.70;53.90
1337;DHT22;662;48.814;9.318;2023-05-10T13:14:13;19.80;53.60
1337;DHT22;662;48.814;9.318;2023-05-10T13:16:39;19.70;52.20
1337;DHT22;662;48.814;9.318;2023-05-10T13:19:05;19.70;51.30
1337;DHT22;662;48.814;9.318;2023-05-10T13:21:30;19.60;51.70
1337;DHT22;662;48.814;9.318;2023-05-10T13:23:56;19.60;52.40
1337;DHT22;662;48.814;9.318;2023-05-10T13:26:22;19.50;52.70
1337;DHT22;662;48.814;9.318;2023-05-10T13:28:47;19.40;52.60
1337;DHT22;662;48.814;9.318;2023-05-10T13:31:14;19.30;52.40
1337;DHT22;662;48.814;9.318;2023-05-10T13:33:39;19.20;52.00
1337;DHT22;662;48.814;9.318;2023-05-10T13:36:06;19.10;51.50
1337;DHT22;662;48.814;9.318;2023-05-10T13:38:31;19.00;52.00
1337;DHT22;662;48.814;9.318;2023-05-10T13:40:57;18.90;52.40
1337;DHT22;662;48.814;9.318;2023-05-10T13:43:23;18.80;52.80
1337;DHT22;662;48.814;9.318;2023-05-10T13:45:49;18.80;53.20
1337;DHT22;662;48.814;9.318;2023-05-10T13:48:15;18.80;53.40
1337;DHT22;662;48.814;9.318;2023-05-10T13:50:41;18.80;53.70
1337;DHT22;662;48.814;9.318;2023-05-10T13:53:06;18.80;53.60
1337;DHT22;662;48.814;9.318;2023-05-10T13:55:32;18.90;53.60
1337;DHT22;662;48.814;9.318;2023-05-10T13:57:57;19.00;53.50
1337;DHT22;662;48.814;9.318;2023-05-10T14:00:23;19.10;53.40
1337;DHT22;662;48.814;9.318;2023-05-10T14:02:49;19.30;53.10
1337;DHT22;662;48.814;9.318;2023-05-10T14:05:14;19.30;52.90
1337;DHT22;662;48.814;9.318;2023-05-10T14:07:40;19.40;52.60
1337;DHT22;662;48.814;9.318;2023-05-10T14:10:06;19.40;51.60
1337;DHT22;662;48.814;9.318;2023-05-10T14:12:32;19.40;51.40
1337;DHT22;662;48.814;9.318;2023-05-10T14:14:58;19.40;50.60
1337;DHT22;662;48.814;9.318;2023-05-10T14:17:23;19.40;51.00
1337;DHT22;662;48.814;9.318;2023-05-10T14:19:49;19.40;51.60
1337;DHT22;662;48.814;9.318;2023-05-10T14:22:14;19.40;52.10
1337;DHT22;662;48.814;9.318;2023-05-10T14:24:40;19.40;52.40
1337;DHT22;662;48.814;9.318;2023-05-10T14:27:06;19.50;52.60
1337;DHT22;662;48.814;9.318;2023-05-10T14:29:32;19.50;52.10
1337;DHT22;662;48.814;9.318;2023-05-10T14:31:58;19.50;52.10
1337;DHT22;662;48.814;9.318;2023-05-10T14:34:23;19.60;52.30
1337;DHT22;662;48.814;9.318;2023-05-10T14:36:49;19.70;52.20
1337;DHT22;662;48.814;9.318;2023-05-10T14:39:15;19.80;52.10
1337;DHT22;662;48.814;9.318;2023-05-10T14:41:40;19.90;51.60
1337;DHT22;662;48.814;9.318;2023-05-10T14:44:08;19.90;51.10
1337;DHT22;662;48.814;9.318;2023-05-10T14:46:33;19.90;50.70
1337;DHT22;662;48.814;9.318;2023-05-10T14:48:59;19.90;50.70
1337;DHT22;662;48.814;9.318;2023-05-10T14:51:25;19.90;50.30
1337;DHT22;662;48.814;9.318;2023-05-10T14:53:50;19.80;50.10
1337;DHT22;662;48.814;9.318;2023-05-10T14:56:16;19.80;50.20
1337;DHT22;662;48.814;9.318;2023-05-10T14:58:42;19.80;50.30
1337;DHT22;662;48.814;9.318;2023-05-10T15:01:07;19.90;50.40
1337;DHT22;662;48.814;9.318;2023-05-10T15:03:33;19.90;49.90
1337;DHT22;662;48.814;9.318;2023-05-10T15:05:58;19.90;48.90
1337;DHT22;662;48.814;9.318;2023-05-10T15:08:24;19.80;48.50
1337;DHT22;662;48.814;9.318;2023-05-10T15:10:51;19.80;47.50
1337;DHT22;662;48.814;9.318;2023-05-10T15:13:16;19.70;46.90
1337;DHT22;662;48.814;9.318;2023-05-10T15:15:42;19.60;47.90
1337;DHT22;662;48.814;9.318;2023-05-10T15:18:09;19.70;48.70
1337;DHT22;662;48.814;9.318;2023-05-10T15:20:34;19.70;48.10
1337;DHT22;662;48.814;9.318;2023-05-10T15:23:00;19.60;48.00
1337;DHT22;662;48.814;9.318;2023-05-10T15:25:26;19.60;48.50
1337;DHT22;662;48.814;9.318;2023-05-10T15:27:53;19.60;48.60
1337;DHT22;662;48.814;9.318;2023-05-10T15:30:18;19.60;48.00
1337;DHT22;662;48.814;9.318;2023-05-10T15:32:44;19.60;48.50
1337;DHT22;662;48.814;9.318;2023-05-10T15:35:10;19.60;48.90
1337;DHT22;662;48.814;9.318;2023-05-10T15:37:36;19.60;48.90
1337;DHT22;662;48.814;9.318;2023-05-10T15:40:02;19.60;49.20
1337;DHT22;662;48.814;9.318;2023-05-10T15:42:29;19.60;50.10
1337;DHT22;662;48.814;9.318;2023-05-10T15:44:56;19.60;49.70
1337;DHT22;662;48.814;9.318;2023-05-10T15:47:21;19.70;50.00
1337;DHT22;662;48.814;9.318;2023-05-10T15:49:47;19.70;50.10
1337;DHT22;662;48.814;9.318;2023-05-10T15:52:12;19.70;50.10
1337;DHT22;662;48.814;9.318;2023-05-10T15:54:38;19.70;50.30
1337;DHT22;662;48.814;9.318;2023-05-10T15:57:04;19.70;50.40
1337;DHT22;662;48.814;9.318;2023-05-10T15:59:32;19.70;50.40
1337;DHT22;662;48.814;9.318;2023-05-10T16:01:58;19.70;50.50
1337;DHT22;662;48.814;9.318;2023-05-10T16:04:23;19.70;50.60
1337;DHT22;662;48.814;9.318;2023-05-10T16:06:49;19.70;50.60
1337;DHT22;662;48.814;9.318;2023-05-10T16:09:15;19.70;50.90
1337;DHT22;662;48.814;9.318;2023-05-10T16:11:42;19.70;50.90
1337;DHT22;662;48.814;9.318;2023-05-10T16:14:08;19.70;51.00
1337;DHT22;662;48.814;9.318;2023-05-10T16:16:34;19.70;51.20
1337;DHT22;662;48.814;9.318;2023-05-10T16:19:00;19.70;51.40
1337;DHT22;662;48.814;9.318;2023-05-10T16:21:26;19.60;51.50
1337;DHT22;662;48.814;9.318;2023-05-10T16:23:54;19.60;51.40
1337;DHT22;662;48.814;9.318;2023-05-10T16:26:19;19.60;51.50
1337;DHT22;662;48.814;9.318;2023-05-10T16:28:47;19.60;51.30
1337;DHT22;662;48.814;9.318;2023-05-10T16:31:13;19.50;51.40
1337;DHT22;662;48.814;9.318;2023-05-10T16:33:38;19.50;51.50
1337;DHT22;662;48.814;9.318;2023-05-10T16:36:04;19.40;51.60
1337;DHT22;662;48.814;9.318;2023-05-10T16:38:30;19.40;51.70
1337;DHT22;662;48.814;9.318;2023-05-10T16:40:56;19.30;51.70
1337;DHT22;662;48.814;9.318;2023-05-10T16:43:22;19.30;51.80
1337;DHT22;662;48.814;9.318;2023-05-10T16:45:47;19.20;52.00
1337;DHT22;662;48.814;9.318;2023-05-10T16:48:13;19.20;52.10
1337;DHT22;662;48.814;9.318;2023-05-10T16:50:42;19.20;52.40